This is the latest recevied weather packets stored in our database for station/object OE-11369. If no packets are shown the sender has not sent any weather packets the latest 10 day(s).
| Time | Temp. | Humidity | Pressure | Rain* | Wind** | Luminosity | Snow |
|---|---|---|---|---|---|---|---|
| 1787810102 | 14.44° C | 89% | 1017.1 hPa | - | - | - | - |
| 1787809275 | 14.44° C | 91% | 1017.3 hPa | - | - | - | - |
| 1787808902 | 13.89° C | 92% | 1017.4 hPa | - | - | - | - |
| 1787808302 | 13.89° C | 92% | 1017.5 hPa | - | - | - | - |
| 1787807475 | 13.33° C | 92% | 1017.6 hPa | - | - | - | - |
| 1787807102 | 13.33° C | 93% | 1017.5 hPa | - | - | - | - |
| 1787806502 | 13.33° C | 93% | 1017.6 hPa | - | - | - | - |
| 1787805674 | 13.33° C | 92% | 1017.5 hPa | - | - | - | - |
| 1787805302 | 13.33° C | 92% | 1017.4 hPa | - | - | - | - |
| 1787804702 | 13.33° C | 92% | 1017.4 hPa | - | - | - | - |
| 1787803875 | 12.78° C | 92% | 1017.5 hPa | - | - | - | - |
| 1787803502 | 13.33° C | 92% | 1017.2 hPa | - | - | - | - |
| 1787802902 | 13.33° C | 92% | 1017.1 hPa | - | - | - | - |
| 1787802302 | 13.33° C | 92% | 1017.1 hPa | - | - | - | - |
| 1787801702 | 13.33° C | 92% | 1017 hPa | - | - | - | - |
| 1787801102 | 13.33° C | 92% | 1017 hPa | - | - | - | - |
| 1787800275 | 13.33° C | 92% | 1017 hPa | - | - | - | - |
| 1787799902 | 13.33° C | 92% | 1017 hPa | - | - | - | - |
| 1787799302 | 13.33° C | 92% | 1016.9 hPa | - | - | - | - |
| 1787798474 | 13.33° C | 92% | 1017 hPa | - | - | - | - |
| 1787798102 | 13.89° C | 92% | 1016.9 hPa | - | - | - | - |
| 1787797502 | 13.89° C | 91% | 1016.8 hPa | - | - | - | - |
| 1787796675 | 13.89° C | 90% | 1016.8 hPa | - | - | - | - |
| 1787796301 | 13.89° C | 91% | 1016.8 hPa | - | - | - | - |
| 1787795702 | 13.89° C | 92% | 1016.7 hPa | - | - | - | - |
* Rain since midnight (hover to see other rain measurements)
** Current wind speed in m/s (hover to see current wind gust speed)